createdAt,value
2023-03-27T00:02:25.509Z,99.90
2023-03-27T00:04:54.714Z,99.90
2023-03-27T00:07:22.070Z,99.90
2023-03-27T00:09:48.885Z,99.90
2023-03-27T00:12:15.595Z,99.90
2023-03-27T00:14:42.381Z,99.90
2023-03-27T00:17:09.266Z,99.90
2023-03-27T00:19:36.501Z,99.90
2023-03-27T00:22:03.848Z,99.90
2023-03-27T00:24:30.596Z,99.90
2023-03-27T00:26:58.312Z,99.90
2023-03-27T00:29:25.108Z,99.90
2023-03-27T00:31:51.827Z,99.90
2023-03-27T00:34:18.703Z,99.90
2023-03-27T00:36:51.166Z,99.90
2023-03-27T00:39:19.346Z,99.90
2023-03-27T00:41:46.197Z,99.90
2023-03-27T00:44:13.974Z,99.90
2023-03-27T00:46:40.827Z,99.90
2023-03-27T00:49:08.286Z,99.90
2023-03-27T00:51:35.047Z,99.90
2023-03-27T00:54:02.011Z,99.90
2023-03-27T00:56:28.811Z,99.90
2023-03-27T00:58:55.672Z,99.90
2023-03-27T01:01:22.355Z,99.90
2023-03-27T01:03:49.337Z,99.90
2023-03-27T01:06:19.696Z,99.90
2023-03-27T01:08:47.053Z,99.90
2023-03-27T01:11:13.841Z,99.90
2023-03-27T01:13:40.664Z,99.90
2023-03-27T01:16:07.411Z,99.90
2023-03-27T01:18:34.410Z,99.90
2023-03-27T01:21:02.326Z,99.90
2023-03-27T01:23:36.060Z,99.90
2023-03-27T01:26:16.127Z,99.90
2023-03-27T01:28:43.451Z,99.90
2023-03-27T01:31:11.130Z,99.90
2023-03-27T01:33:38.716Z,99.90
2023-03-27T01:36:05.618Z,99.90
2023-03-27T01:38:32.500Z,99.90
2023-03-27T01:40:59.401Z,99.90
2023-03-27T01:43:26.533Z,99.90
2023-03-27T01:45:53.436Z,99.90
2023-03-27T01:48:20.424Z,99.90
2023-03-27T01:50:47.191Z,99.90
2023-03-27T01:53:13.900Z,99.90
2023-03-27T01:55:40.703Z,99.90
2023-03-27T01:58:07.508Z,99.90
2023-03-27T02:00:51.103Z,99.90
2023-03-27T02:03:20.673Z,99.90
2023-03-27T02:05:47.397Z,99.90
2023-03-27T02:08:14.518Z,99.90
2023-03-27T02:10:42.969Z,99.90
2023-03-27T02:13:13.790Z,99.90
2023-03-27T02:15:40.997Z,99.90
2023-03-27T02:18:10.105Z,99.90
2023-03-27T02:20:37.027Z,99.90
2023-03-27T02:23:04.927Z,99.90
2023-03-27T02:25:32.343Z,99.90
2023-03-27T02:28:00.780Z,99.90
2023-03-27T02:30:27.897Z,99.90
2023-03-27T02:32:55.386Z,99.90
2023-03-27T02:35:27.957Z,99.90
2023-03-27T02:37:55.035Z,99.90
2023-03-27T02:40:44.254Z,99.90
2023-03-27T02:43:39.599Z,99.90
2023-03-27T02:46:10.588Z,99.90
2023-03-27T02:48:38.877Z,99.90
2023-03-27T02:51:05.644Z,99.90
2023-03-27T02:53:32.495Z,99.90
2023-03-27T02:55:59.348Z,99.90
2023-03-27T02:58:27.041Z,99.90
2023-03-27T03:01:00.558Z,99.90
2023-03-27T03:03:39.812Z,99.90
2023-03-27T03:06:18.252Z,99.90
2023-03-27T03:08:46.746Z,99.90
2023-03-27T03:11:13.531Z,99.90
2023-03-27T03:13:41.271Z,99.90
2023-03-27T03:16:08.782Z,99.90
2023-03-27T03:18:35.589Z,99.90
2023-03-27T03:21:02.383Z,99.90
2023-03-27T03:23:29.173Z,99.90
2023-03-27T03:25:56.906Z,99.90
2023-03-27T03:28:30.384Z,99.90
2023-03-27T03:30:59.108Z,99.90
2023-03-27T03:33:28.061Z,99.90
2023-03-27T03:35:55.065Z,99.90
2023-03-27T03:38:30.263Z,99.90
2023-03-27T03:41:06.914Z,99.90
2023-03-27T03:43:33.932Z,99.90
2023-03-27T03:46:01.211Z,99.90
2023-03-27T03:48:28.045Z,99.90
2023-03-27T03:50:55.103Z,99.90
2023-03-27T03:53:22.196Z,99.90
2023-03-27T03:55:48.949Z,99.90
2023-03-27T03:58:15.638Z,99.90
2023-03-27T04:00:43.599Z,99.90
2023-03-27T04:03:27.270Z,99.90
2023-03-27T04:05:54.533Z,99.90
2023-03-27T04:08:22.012Z,99.90
2023-03-27T04:11:06.123Z,99.90
2023-03-27T04:14:03.680Z,99.90
2023-03-27T04:16:39.386Z,99.90
2023-03-27T04:19:18.295Z,99.90
2023-03-27T04:21:48.256Z,99.90
2023-03-27T04:24:18.298Z,99.90
2023-03-27T04:26:48.077Z,99.90
2023-03-27T04:29:30.266Z,99.90
2023-03-27T04:32:00.055Z,99.90
2023-03-27T04:34:41.861Z,99.90
2023-03-27T04:37:33.141Z,99.90
2023-03-27T04:40:20.778Z,99.90
2023-03-27T04:42:47.546Z,99.90
2023-03-27T04:45:14.329Z,99.90
2023-03-27T04:47:43.976Z,99.90
2023-03-27T04:50:11.258Z,99.90
2023-03-27T04:52:38.034Z,99.90
2023-03-27T04:55:05.478Z,99.90
2023-03-27T04:57:33.079Z,99.90
2023-03-27T05:00:01.126Z,99.90
2023-03-27T05:02:46.267Z,99.90
2023-03-27T05:05:23.069Z,99.90
2023-03-27T05:07:51.556Z,99.90
2023-03-27T05:10:22.018Z,99.90
2023-03-27T05:12:50.100Z,99.90
2023-03-27T05:15:17.610Z,99.90
2023-03-27T05:17:46.040Z,99.90
2023-03-27T05:20:14.700Z,99.90
2023-03-27T05:22:42.131Z,99.90
2023-03-27T05:25:29.258Z,99.90
2023-03-27T05:27:57.058Z,99.90
2023-03-27T05:30:27.815Z,99.90
2023-03-27T05:33:17.640Z,99.90
2023-03-27T05:35:48.431Z,99.90
2023-03-27T05:38:16.060Z,99.90
2023-03-27T05:41:04.184Z,99.90
2023-03-27T05:43:34.909Z,99.90
2023-03-27T05:46:02.760Z,99.90
2023-03-27T05:48:29.966Z,99.90
2023-03-27T05:51:00.222Z,99.90
2023-03-27T05:53:28.620Z,99.90
2023-03-27T05:56:13.341Z,99.90
2023-03-27T05:58:51.250Z,99.90
2023-03-27T06:01:18.898Z,99.90
2023-03-27T06:03:48.408Z,99.90
2023-03-27T06:06:20.400Z,99.90
2023-03-27T06:08:47.375Z,99.90
2023-03-27T06:11:15.354Z,99.90
2023-03-27T06:13:46.155Z,99.90
2023-03-27T06:16:20.772Z,99.90
2023-03-27T06:19:24.552Z,99.90
2023-03-27T06:21:52.911Z,99.90
2023-03-27T06:24:19.647Z,99.90
2023-03-27T06:26:46.708Z,99.90
2023-03-27T06:29:13.699Z,99.90
2023-03-27T06:31:46.565Z,99.90
2023-03-27T06:34:25.638Z,99.90
2023-03-27T06:37:12.940Z,99.90
2023-03-27T06:39:42.906Z,99.90
2023-03-27T06:42:10.617Z,99.90
2023-03-27T06:44:49.364Z,99.90
2023-03-27T06:47:44.417Z,99.90
2023-03-27T06:50:33.903Z,99.90
2023-03-27T06:53:00.666Z,99.90
2023-03-27T06:55:42.288Z,99.90
2023-03-27T06:58:09.198Z,99.90
2023-03-27T07:00:37.332Z,99.90
2023-03-27T07:03:18.296Z,99.90
2023-03-27T07:06:05.748Z,99.90
2023-03-27T07:08:43.352Z,99.90
2023-03-27T07:11:12.469Z,99.90
2023-03-27T07:14:08.736Z,99.90
2023-03-27T07:16:35.750Z,99.90
2023-03-27T07:19:02.803Z,99.90
2023-03-27T07:21:32.486Z,99.90
2023-03-27T07:23:59.867Z,99.90
2023-03-27T07:26:34.348Z,99.90
2023-03-27T07:29:04.279Z,99.90
2023-03-27T07:31:49.031Z,99.90
2023-03-27T07:34:18.348Z,99.90
2023-03-27T07:37:02.549Z,99.90
2023-03-27T07:39:31.849Z,99.90
2023-03-27T07:41:58.603Z,99.90
2023-03-27T07:44:31.215Z,99.90
2023-03-27T07:47:03.539Z,99.90
2023-03-27T07:49:39.675Z,99.90
2023-03-27T07:52:09.242Z,99.90
2023-03-27T07:54:45.783Z,99.90
2023-03-27T07:57:18.413Z,99.90
2023-03-27T08:00:01.622Z,99.90
2023-03-27T08:02:42.901Z,99.90
2023-03-27T08:05:11.421Z,99.90
2023-03-27T08:07:42.397Z,99.90
2023-03-27T08:10:09.980Z,99.90
2023-03-27T08:12:49.225Z,99.90
2023-03-27T08:15:16.059Z,99.90
2023-03-27T08:17:42.793Z,99.90
2023-03-27T08:20:15.352Z,99.90
2023-03-27T08:22:47.213Z,99.90
2023-03-27T08:25:37.283Z,99.90
2023-03-27T08:28:08.171Z,99.90
2023-03-27T08:30:35.618Z,99.90
2023-03-27T08:33:03.990Z,99.90
2023-03-27T08:35:31.718Z,99.90
2023-03-27T08:37:59.176Z,99.90
2023-03-27T08:40:47.916Z,99.90
2023-03-27T08:43:27.313Z,99.90
2023-03-27T08:45:54.463Z,99.90
2023-03-27T08:48:24.052Z,99.90
2023-03-27T08:50:51.232Z,99.90
2023-03-27T08:53:18.931Z,99.90
2023-03-27T08:55:46.209Z,99.90
2023-03-27T08:58:24.919Z,99.90
2023-03-27T09:01:02.123Z,99.90
2023-03-27T09:03:32.291Z,99.90
2023-03-27T09:05:59.484Z,99.90
2023-03-27T09:08:27.890Z,99.90
2023-03-27T09:10:55.566Z,99.90
2023-03-27T09:13:31.134Z,99.90
2023-03-27T09:15:58.842Z,99.90
2023-03-27T09:18:27.481Z,99.90
2023-03-27T09:20:56.345Z,99.90
2023-03-27T09:23:23.510Z,99.90
2023-03-27T09:26:16.574Z,99.90
2023-03-27T09:29:03.257Z,99.90
2023-03-27T09:31:34.972Z,99.90
2023-03-27T09:34:06.042Z,99.90
2023-03-27T09:36:35.788Z,99.90
2023-03-27T09:39:02.877Z,99.90
2023-03-27T09:41:30.359Z,99.90
2023-03-27T09:43:57.582Z,99.90
2023-03-27T09:46:24.540Z,99.90
2023-03-27T09:48:56.696Z,99.90
2023-03-27T09:51:23.637Z,99.90
2023-03-27T09:53:53.828Z,99.90
2023-03-27T09:56:21.070Z,99.90
2023-03-27T09:58:53.972Z,99.90
2023-03-27T10:01:22.324Z,99.90
2023-03-27T10:03:53.662Z,99.90
2023-03-27T10:06:35.376Z,99.90
2023-03-27T10:09:07.687Z,99.90
2023-03-27T10:11:39.057Z,99.90
2023-03-27T10:14:10.878Z,99.20
2023-03-27T10:16:37.678Z,98.90
2023-03-27T10:19:06.609Z,98.50
2023-03-27T10:21:40.237Z,98.20
2023-03-27T10:24:08.396Z,98.20
2023-03-27T10:26:53.844Z,98.60
2023-03-27T10:29:22.024Z,98.50
2023-03-27T10:31:49.540Z,98.50
2023-03-27T10:34:34.651Z,97.80
2023-03-27T10:37:20.726Z,97.00
2023-03-27T10:39:52.004Z,97.10
2023-03-27T10:42:38.105Z,96.50
2023-03-27T10:45:04.959Z,96.70
2023-03-27T10:47:31.813Z,95.50
2023-03-27T10:49:58.962Z,95.40
2023-03-27T10:52:32.923Z,95.40
2023-03-27T10:55:11.003Z,94.40
2023-03-27T10:57:38.256Z,95.00
2023-03-27T11:00:11.781Z,94.90
2023-03-27T11:02:46.630Z,94.60
2023-03-27T11:05:14.210Z,93.20
2023-03-27T11:07:41.647Z,92.20
2023-03-27T11:10:09.400Z,90.80
2023-03-27T11:12:36.323Z,88.20
2023-03-27T11:15:04.478Z,88.60
2023-03-27T11:17:32.911Z,88.20
2023-03-27T11:20:16.250Z,86.30
2023-03-27T11:23:05.753Z,86.10
2023-03-27T11:25:46.893Z,86.70
2023-03-27T11:28:21.011Z,89.90
2023-03-27T11:30:48.389Z,88.30
2023-03-27T11:33:15.363Z,85.90
2023-03-27T11:35:42.755Z,86.20
2023-03-27T11:38:32.017Z,85.40
2023-03-27T11:41:03.159Z,84.30
2023-03-27T11:43:30.482Z,85.30
2023-03-27T11:45:57.380Z,85.40
2023-03-27T11:48:24.366Z,83.70
2023-03-27T11:50:51.935Z,82.90
2023-03-27T11:53:18.907Z,82.10
2023-03-27T11:56:03.946Z,83.80
2023-03-27T11:58:34.917Z,84.00
2023-03-27T12:01:07.241Z,85.50
2023-03-27T12:03:36.841Z,84.40
2023-03-27T12:06:05.450Z,84.00
2023-03-27T12:08:35.516Z,84.40
2023-03-27T12:11:02.387Z,84.00
2023-03-27T12:13:41.777Z,83.80
2023-03-27T12:16:20.503Z,84.10
2023-03-27T12:19:03.837Z,82.40
2023-03-27T12:21:37.296Z,83.60
2023-03-27T12:24:14.204Z,86.40
2023-03-27T12:26:59.422Z,83.80
2023-03-27T12:29:52.613Z,82.60
2023-03-27T12:32:19.450Z,83.20
2023-03-27T12:34:50.231Z,81.10
2023-03-27T12:37:18.017Z,81.60
2023-03-27T12:39:45.087Z,82.10
2023-03-27T12:42:12.301Z,80.60
2023-03-27T12:44:39.510Z,82.50
2023-03-27T12:47:09.616Z,80.20
2023-03-27T12:49:46.459Z,80.80
2023-03-27T12:52:20.373Z,80.10
2023-03-27T12:55:11.584Z,81.70
2023-03-27T12:58:04.544Z,79.90
2023-03-27T13:00:43.681Z,80.80
2023-03-27T13:03:11.868Z,80.00
2023-03-27T13:05:38.860Z,80.50
2023-03-27T13:08:09.406Z,79.80
2023-03-27T13:10:56.225Z,80.80
2023-03-27T13:13:23.664Z,79.50
2023-03-27T13:15:51.434Z,79.90
2023-03-27T13:18:27.074Z,79.10
2023-03-27T13:20:54.659Z,80.00
2023-03-27T13:23:23.028Z,79.40
2023-03-27T13:25:49.933Z,80.70
2023-03-27T13:28:16.736Z,80.90
2023-03-27T13:31:07.809Z,79.90
2023-03-27T13:33:54.834Z,79.70
2023-03-27T13:36:30.592Z,80.00
2023-03-27T13:39:00.022Z,79.00
2023-03-27T13:41:28.596Z,78.90
2023-03-27T13:43:56.005Z,79.70
2023-03-27T13:46:36.325Z,78.20
2023-03-27T13:49:11.403Z,76.80
2023-03-27T13:51:46.867Z,78.30
2023-03-27T13:54:15.234Z,79.50
2023-03-27T13:56:45.888Z,79.80
2023-03-27T13:59:32.616Z,79.10
2023-03-27T14:02:01.507Z,78.60
2023-03-27T14:04:29.323Z,78.20
2023-03-27T14:06:56.707Z,80.30
2023-03-27T14:09:24.299Z,79.20
2023-03-27T14:12:16.432Z,77.60
2023-03-27T14:15:10.629Z,79.00
2023-03-27T14:17:41.440Z,78.90
2023-03-27T14:20:08.547Z,76.40
2023-03-27T14:22:38.114Z,77.60
2023-03-27T14:25:05.304Z,75.10
2023-03-27T14:27:40.918Z,75.30
2023-03-27T14:30:07.955Z,75.80
2023-03-27T14:32:37.434Z,76.40
2023-03-27T14:35:06.503Z,76.70
2023-03-27T14:37:45.062Z,76.50
2023-03-27T14:40:30.496Z,77.00
2023-03-27T14:43:00.684Z,76.80
2023-03-27T14:45:29.839Z,75.40
2023-03-27T14:47:57.664Z,76.10
2023-03-27T14:50:26.625Z,75.30
2023-03-27T14:52:54.501Z,74.60
2023-03-27T14:55:34.470Z,75.50
2023-03-27T14:58:19.706Z,76.20
2023-03-27T15:00:50.367Z,76.40
2023-03-27T15:03:17.637Z,76.40
2023-03-27T15:05:45.047Z,75.80
2023-03-27T15:08:12.990Z,74.50
2023-03-27T15:10:58.666Z,75.20
2023-03-27T15:13:48.768Z,73.70
2023-03-27T15:16:22.905Z,76.10
2023-03-27T15:18:49.900Z,74.00
2023-03-27T15:21:17.315Z,74.30
2023-03-27T15:23:44.115Z,75.70
2023-03-27T15:26:10.842Z,75.20
2023-03-27T15:28:38.190Z,76.40
2023-03-27T15:31:04.976Z,76.20
2023-03-27T15:33:34.639Z,77.40
2023-03-27T15:36:01.768Z,75.60
2023-03-27T15:38:29.052Z,74.80
2023-03-27T15:40:56.239Z,74.80
2023-03-27T15:43:23.041Z,74.30
2023-03-27T15:45:49.728Z,75.30
2023-03-27T15:48:16.539Z,73.00
2023-03-27T15:50:43.320Z,74.30
2023-03-27T15:53:10.135Z,72.80
2023-03-27T15:55:36.902Z,75.10
2023-03-27T15:58:03.631Z,74.30
2023-03-27T16:00:30.387Z,72.60
2023-03-27T16:02:57.320Z,73.50
2023-03-27T16:05:24.013Z,75.00
2023-03-27T16:07:50.773Z,73.30
2023-03-27T16:10:17.472Z,74.30
2023-03-27T16:12:44.249Z,72.80
2023-03-27T16:15:11.014Z,74.70
2023-03-27T16:17:38.235Z,75.70
2023-03-27T16:20:08.060Z,74.30
2023-03-27T16:22:34.867Z,75.40
2023-03-27T16:25:01.606Z,75.60
2023-03-27T16:27:28.378Z,75.00
2023-03-27T16:29:55.331Z,75.00
2023-03-27T16:32:22.120Z,74.30
2023-03-27T16:34:51.451Z,75.20
2023-03-27T16:37:18.283Z,74.90
2023-03-27T16:39:45.014Z,76.80
2023-03-27T16:42:11.878Z,76.30
2023-03-27T16:44:38.570Z,76.00
2023-03-27T16:47:05.277Z,76.20
2023-03-27T16:49:32.043Z,77.20
2023-03-27T16:51:58.771Z,77.10
2023-03-27T16:54:25.824Z,77.00
2023-03-27T16:56:52.666Z,77.60
2023-03-27T16:59:19.484Z,77.40
2023-03-27T17:01:46.414Z,77.40
2023-03-27T17:04:13.104Z,77.80
2023-03-27T17:06:40.355Z,77.40
2023-03-27T17:09:07.750Z,78.10
2023-03-27T17:11:34.554Z,78.10
2023-03-27T17:14:01.213Z,76.30
2023-03-27T17:16:27.945Z,76.70
2023-03-27T17:18:55.813Z,76.50
2023-03-27T17:21:22.612Z,75.40
2023-03-27T17:23:49.546Z,76.60
2023-03-27T17:26:16.330Z,75.20
2023-03-27T17:28:43.415Z,75.10
2023-03-27T17:31:10.360Z,76.10
2023-03-27T17:33:37.128Z,75.90
2023-03-27T17:36:03.958Z,75.60
2023-03-27T17:38:30.771Z,76.80
2023-03-27T17:40:57.624Z,77.10
2023-03-27T17:43:24.356Z,77.00
2023-03-27T17:45:51.418Z,77.90
2023-03-27T17:48:18.110Z,77.90
2023-03-27T17:50:45.231Z,77.00
2023-03-27T17:53:14.638Z,77.30
2023-03-27T17:55:43.075Z,78.00
2023-03-27T17:58:10.175Z,78.40
2023-03-27T18:00:37.003Z,78.20
2023-03-27T18:03:04.081Z,79.10
2023-03-27T18:05:31.053Z,79.80
2023-03-27T18:07:57.769Z,80.00
2023-03-27T18:10:24.589Z,80.40
2023-03-27T18:12:51.474Z,81.60
2023-03-27T18:15:18.133Z,81.50
2023-03-27T18:17:44.969Z,81.40
2023-03-27T18:20:11.745Z,83.10
2023-03-27T18:22:38.481Z,83.00
2023-03-27T18:25:06.256Z,83.40
2023-03-27T18:27:33.013Z,83.70
2023-03-27T18:29:59.805Z,83.70
2023-03-27T18:32:26.672Z,84.20
2023-03-27T18:34:53.505Z,84.70
2023-03-27T18:37:20.474Z,85.70
2023-03-27T18:39:47.605Z,86.50
2023-03-27T18:42:14.352Z,85.60
2023-03-27T18:44:41.638Z,86.40
2023-03-27T18:47:08.681Z,86.40
2023-03-27T18:49:35.487Z,86.50
2023-03-27T18:52:02.194Z,86.70
2023-03-27T18:54:28.961Z,86.80
2023-03-27T18:56:56.038Z,87.10
2023-03-27T18:59:22.847Z,87.40
2023-03-27T19:01:49.992Z,88.00
2023-03-27T19:04:17.330Z,88.10
2023-03-27T19:06:44.229Z,88.50
2023-03-27T19:09:10.949Z,88.70
2023-03-27T19:11:38.342Z,89.80
2023-03-27T19:14:23.731Z,90.10
2023-03-27T19:17:14.691Z,90.20
2023-03-27T19:20:09.039Z,90.30
2023-03-27T19:22:49.005Z,90.70
2023-03-27T19:25:27.717Z,90.90
2023-03-27T19:27:54.683Z,92.00
2023-03-27T19:30:21.425Z,92.50
2023-03-27T19:32:48.240Z,93.10
2023-03-27T19:35:15.575Z,93.70
2023-03-27T19:37:42.780Z,93.80
2023-03-27T19:40:10.652Z,94.30
2023-03-27T19:42:37.487Z,94.40
2023-03-27T19:45:04.194Z,94.80
2023-03-27T19:47:31.083Z,95.00
2023-03-27T19:49:58.040Z,95.20
2023-03-27T19:52:54.499Z,95.30
2023-03-27T19:55:28.195Z,95.40
2023-03-27T19:57:55.057Z,95.80
2023-03-27T20:00:21.878Z,95.90
2023-03-27T20:02:48.695Z,96.20
2023-03-27T20:05:15.695Z,96.30
2023-03-27T20:07:42.430Z,96.40
2023-03-27T20:10:09.428Z,96.50
2023-03-27T20:12:36.212Z,96.80
2023-03-27T20:17:34.197Z,96.90
2023-03-27T20:20:01.211Z,97.00
2023-03-27T20:22:29.695Z,97.20
2023-03-27T20:24:56.423Z,97.50
2023-03-27T20:27:27.675Z,97.40
2023-03-27T20:29:54.490Z,97.70
2023-03-27T20:32:21.429Z,97.80
2023-03-27T20:34:49.053Z,97.90
2023-03-27T20:37:16.273Z,98.10
2023-03-27T20:39:47.265Z,98.20
2023-03-27T20:42:15.036Z,98.70
2023-03-27T20:44:42.021Z,99.00
2023-03-27T20:47:12.388Z,98.90
2023-03-27T20:49:43.057Z,99.10
2023-03-27T20:52:09.918Z,99.40
2023-03-27T20:54:36.831Z,99.40
2023-03-27T20:57:03.748Z,99.70
2023-03-27T20:59:30.782Z,99.90
2023-03-27T21:01:57.611Z,99.90
2023-03-27T21:04:26.515Z,99.90
2023-03-27T21:06:54.995Z,99.90
2023-03-27T21:09:21.838Z,99.90
2023-03-27T21:11:48.593Z,99.90
2023-03-27T21:14:15.674Z,99.90
2023-03-27T21:16:42.555Z,99.90
2023-03-27T21:19:10.395Z,99.90
2023-03-27T21:21:37.276Z,99.90
2023-03-27T21:24:03.983Z,99.90
2023-03-27T21:26:30.732Z,99.90
2023-03-27T21:28:57.445Z,99.90
2023-03-27T21:31:24.192Z,99.90
2023-03-27T21:33:51.268Z,99.90
2023-03-27T21:36:18.042Z,99.90
2023-03-27T21:38:44.950Z,99.90
2023-03-27T21:41:11.751Z,99.90
2023-03-27T21:43:38.483Z,99.90
2023-03-27T21:46:05.278Z,99.90
2023-03-27T21:48:32.181Z,99.90
2023-03-27T21:50:58.921Z,99.90
2023-03-27T21:53:25.764Z,99.90
2023-03-27T21:55:52.610Z,99.90
2023-03-27T21:58:19.341Z,99.90
2023-03-27T22:00:46.080Z,99.90
2023-03-27T22:03:12.782Z,99.90
2023-03-27T22:05:39.553Z,99.90
2023-03-27T22:08:06.260Z,99.90
2023-03-27T22:10:32.936Z,99.90
2023-03-27T22:12:59.728Z,99.90
2023-03-27T22:15:26.452Z,99.90
2023-03-27T22:17:53.186Z,99.90
2023-03-27T22:20:20.005Z,99.90
2023-03-27T22:22:48.499Z,99.90
2023-03-27T22:25:15.468Z,99.90
2023-03-27T22:27:42.234Z,99.90
2023-03-27T22:30:08.882Z,99.90
2023-03-27T22:32:35.715Z,99.90
2023-03-27T22:35:02.533Z,99.90
2023-03-27T22:37:29.221Z,99.90
2023-03-27T22:39:55.959Z,99.90
2023-03-27T22:42:22.751Z,99.90
2023-03-27T22:44:49.446Z,99.90
2023-03-27T22:47:16.154Z,99.90
2023-03-27T22:49:42.924Z,99.90
2023-03-27T22:52:09.642Z,99.90
2023-03-27T22:54:36.349Z,99.90
2023-03-27T22:57:03.078Z,99.90
2023-03-27T22:59:29.798Z,99.90
2023-03-27T23:01:56.912Z,99.90
2023-03-27T23:04:23.701Z,99.90
2023-03-27T23:06:50.444Z,99.90
2023-03-27T23:09:17.195Z,99.90
2023-03-27T23:11:43.933Z,99.90
2023-03-27T23:14:10.857Z,99.90
2023-03-27T23:16:37.648Z,99.90
2023-03-27T23:19:04.432Z,99.90
2023-03-27T23:21:31.412Z,99.90
2023-03-27T23:23:58.172Z,99.90
2023-03-27T23:26:25.020Z,99.90
2023-03-27T23:28:51.815Z,99.90
2023-03-27T23:31:18.567Z,99.90
2023-03-27T23:33:45.283Z,99.90
2023-03-27T23:36:11.973Z,99.90
2023-03-27T23:38:38.789Z,99.90
2023-03-27T23:41:05.471Z,99.90
2023-03-27T23:43:32.180Z,99.90
2023-03-27T23:46:02.236Z,99.90
2023-03-27T23:48:29.460Z,99.90
2023-03-27T23:50:56.492Z,99.90
2023-03-27T23:53:23.185Z,99.90
2023-03-27T23:55:49.870Z,99.90
2023-03-27T23:58:16.539Z,99.90
